Rechercher aéroport 
image banner adimage banner adimage banner ad
image banner ad

1CA9 - Los Angeles County Fire Department

Situé à Thousand Oaks, United States

ICAO - 1CA9, IATA -

Données fournies par Airmate  

Information générale

Coordonnées: N34°5'1" W118°51'48"
Élévation : 1360 feet MSL.
Variation magnétique : 14° East
Voir autres Aéroports à California

Données opérationnelles

Special qualification required
Heure actuelle UTC:
Heure actuelle locale:
METAR: KNTD 262252Z 26007KT 10SM FEW020 BKN150 BKN260 20/15 A2995 RMK AO2 SLP144 T02000150 VISNO N $
TAF: TAF KNTD 2623/2723 26008KT 9999 FEW020 BKN150 BKN260 QNH2989INS TEMPO 2703/2705 VRB05KT BKN010 BECMG 2705/2707 VRB04KT 9999 OVC008 QNH2992INS BECMG 2716/2718 23009KT 9999 SCT010 QNH2997INS FM272100 26011KT 9999 FEW010 SCT280 QNH2993INS AUTOMATED SENSOR METWATCH 2706 TIL 2713 T16/2713Z T23/2719Z FS30101
Voir NOTAMs / SUP AIP / TFR affectant cet aéroport [VIEW]
Fréquences de communication: [VIEW]

Pistes:

Coordonnées de l'aéroport

Adresse: Thousand Oaks United States

Vue satellite de 1CA9